Time;durP1;ratioP1;P1;durP2;ratioP2;P2;SDS_P1;SDS_P2;PMS_P1;PMS_P2;Temp;Humidity;BMP_temperature;BMP_pressure;BME280_temperature;BME280_humidity;BME280_pressure;Samples;Min_cycle;Max_cycle;Signal;HPM_P1;HPM_P2
2021/10/16 00:00:43;;;;;;;4.45;4.25;;;11.70;66.50;;;;;;4973900;28;20042;-84
2021/10/16 00:03:09;;;;;;;5.32;4.93;;;11.70;66.50;;;;;;4984086;28;20399;-84
2021/10/16 00:05:35;;;;;;;4.57;4.38;;;11.70;66.60;;;;;;4987488;28;20499;-84
2021/10/16 00:08:01;;;;;;;6.22;5.65;;;11.70;66.60;;;;;;5021651;28;20038;-83
2021/10/16 00:10:27;;;;;;;4.57;4.38;;;11.70;66.60;;;;;;4990651;28;20038;-83
2021/10/16 00:12:53;;;;;;;4.88;4.57;;;11.60;66.60;;;;;;4976115;28;20039;-83
2021/10/16 00:15:19;;;;;;;5.13;4.82;;;11.60;66.60;;;;;;4974879;28;20031;-84
2021/10/16 00:17:45;;;;;;;4.78;4.53;;;11.60;66.70;;;;;;5000209;28;20039;-83
2021/10/16 00:20:12;;;;;;;4.90;4.60;;;11.60;66.70;;;;;;5015411;28;20029;-84
2021/10/16 00:22:38;;;;;;;5.35;5.05;;;11.60;66.70;;;;;;4970818;28;20525;-83
2021/10/16 00:25:04;;;;;;;5.18;4.88;;;11.60;66.70;;;;;;4992914;28;20030;-83
2021/10/16 00:27:30;;;;;;;4.97;4.68;;;11.60;66.80;;;;;;5007716;28;20031;-84
2021/10/16 00:29:56;;;;;;;4.93;4.63;;;11.50;66.80;;;;;;4973107;28;20068;-84
2021/10/16 00:32:22;;;;;;;4.45;4.25;;;11.50;66.80;;;;;;4985764;28;20031;-84
2021/10/16 00:34:48;;;;;;;6.00;4.65;;;11.50;66.90;;;;;;4989115;28;20042;-84
2021/10/16 00:37:14;;;;;;;4.90;4.63;;;11.50;66.90;;;;;;4995417;28;20286;-84
2021/10/16 00:39:40;;;;;;;4.97;4.68;;;11.50;67.00;;;;;;4982338;28;20031;-84
2021/10/16 00:42:07;;;;;;;4.68;4.30;;;11.40;67.00;;;;;;4984657;28;20031;-83
2021/10/16 00:44:33;;;;;;;5.03;4.63;;;11.40;67.00;;;;;;4984532;28;20042;-84
2021/10/16 00:47:00;;;;;;;5.47;5.18;;;11.40;67.00;;;;;;5004835;28;20038;-84
2021/10/16 00:49:26;;;;;;;4.50;4.25;;;11.40;67.00;;;;;;5004247;28;20030;-84
2021/10/16 00:51:53;;;;;;;5.45;5.05;;;11.40;67.10;;;;;;4995997;28;20038;-84
2021/10/16 00:54:20;;;;;;;4.93;4.63;;;11.30;67.00;;;;;;5001303;28;20034;-83
2021/10/16 00:56:47;;;;;;;4.80;4.40;;;11.30;67.10;;;;;;4986582;28;20043;-83
2021/10/16 00:59:14;;;;;;;4.18;3.97;;;11.30;67.10;;;;;;5021807;28;20038;-84
2021/10/16 01:01:40;;;;;;;5.10;4.80;;;11.30;67.10;;;;;;4987358;28;20395;-83
2021/10/16 01:04:06;;;;;;;5.35;4.95;;;11.30;67.10;;;;;;5006651;28;20054;-84
2021/10/16 01:06:32;;;;;;;5.63;5.22;;;11.30;67.20;;;;;;5022574;28;20041;-84
2021/10/16 01:08:58;;;;;;;4.60;4.40;;;11.30;67.30;;;;;;5004058;28;20050;-83
2021/10/16 01:11:48;;;;;;;5.20;4.88;;;11.20;67.20;;;;;;4988655;28;20050;-84
2021/10/16 01:14:14;;;;;;;4.65;4.45;;;11.20;67.30;;;;;;4993299;28;20483;-84
2021/10/16 01:16:42;;;;;;;4.80;4.50;;;11.20;67.30;;;;;;5005365;28;20039;-84
2021/10/16 01:19:12;;;;;;;4.93;4.65;;;11.10;67.30;;;;;;4993491;28;20027;-83
2021/10/16 01:21:42;;;;;;;5.97;5.43;;;11.20;67.40;;;;;;4986803;28;20030;-84
2021/10/16 01:24:10;;;;;;;4.38;4.18;;;11.10;67.40;;;;;;4990060;28;20049;-84
2021/10/16 01:26:36;;;;;;;6.32;5.82;;;11.10;67.40;;;;;;5020146;28;20098;-83
2021/10/16 01:29:02;;;;;;;5.20;4.85;;;11.10;67.40;;;;;;4988654;28;20035;-83
2021/10/16 01:31:28;;;;;;;5.70;5.15;;;11.10;67.50;;;;;;5024053;28;20038;-83
2021/10/16 01:33:55;;;;;;;5.63;5.13;;;11.10;67.50;;;;;;5021406;28;20033;-83
2021/10/16 01:36:21;;;;;;;6.13;5.55;;;11.10;67.50;;;;;;4988791;28;20050;-84
2021/10/16 01:38:47;;;;;;;5.57;5.18;;;11.00;67.50;;;;;;4997674;28;20035;-83
2021/10/16 01:41:13;;;;;;;7.88;4.82;;;11.00;67.50;;;;;;4979909;28;20034;-83
2021/10/16 01:43:39;;;;;;;4.53;4.32;;;11.00;67.60;;;;;;5006944;28;20046;-84
2021/10/16 01:46:05;;;;;;;5.32;5.03;;;11.00;67.60;;;;;;4980430;28;20039;-83
2021/10/16 01:48:32;;;;;;;5.07;4.78;;;11.00;67.60;;;;;;4994268;28;20387;-84
2021/10/16 01:50:58;;;;;;;6.15;5.65;;;11.00;67.70;;;;;;4987652;28;20034;-83
2021/10/16 01:53:24;;;;;;;4.82;4.53;;;10.90;67.60;;;;;;4990440;28;20030;-83
2021/10/16 01:55:50;;;;;;;4.40;4.20;;;10.90;67.60;;;;;;4980305;28;20408;-84
2021/10/16 01:58:16;;;;;;;4.53;4.32;;;10.90;67.70;;;;;;4991866;28;20041;-83
2021/10/16 02:00:44;;;;;;;4.60;4.40;;;10.90;67.80;;;;;;4979752;28;20023;-83
2021/10/16 02:03:11;;;;;;;8.18;5.25;;;10.90;67.70;;;;;;4983410;28;20042;-83
2021/10/16 02:05:44;;;;;;;5.30;4.90;;;10.80;67.70;;;;;;4983826;28;20030;-83
2021/10/16 02:08:13;;;;;;;5.45;5.07;;;10.90;67.80;;;;;;4989353;28;20026;-83
2021/10/16 02:10:39;;;;;;;4.88;4.57;;;10.80;68.00;;;;;;4989373;28;20495;-83
2021/10/16 02:13:05;;;;;;;5.30;4.93;;;10.80;67.80;;;;;;4975209;28;20043;-84
2021/10/16 02:15:31;;;;;;;4.88;4.57;;;10.80;67.80;;;;;;5001822;28;20045;-83
2021/10/16 02:17:57;;;;;;;4.15;3.95;;;10.70;67.80;;;;;;4982496;28;20027;-84
2021/10/16 02:20:24;;;;;;;5.20;4.90;;;10.80;67.90;;;;;;5016530;28;20041;-83
2021/10/16 02:22:50;;;;;;;5.30;5.00;;;10.70;67.80;;;;;;4991577;28;20034;-84
2021/10/16 02:25:16;;;;;;;4.88;4.57;;;10.70;67.90;;;;;;4989183;28;20126;-83
2021/10/16 02:27:42;;;;;;;4.63;4.43;;;10.70;67.90;;;;;;4977403;28;20047;-84
2021/10/16 02:30:09;;;;;;;4.82;4.53;;;10.60;67.90;;;;;;4979896;28;20030;-83
2021/10/16 02:32:38;;;;;;;4.40;4.10;;;10.60;68.00;;;;;;4968056;28;20407;-84
2021/10/16 02:35:04;;;;;;;4.85;4.55;;;10.60;68.00;;;;;;5010836;28;20050;-84
2021/10/16 02:37:31;;;;;;;4.20;4.00;;;10.60;68.10;;;;;;4989074;28;20391;-83
2021/10/16 02:39:57;;;;;;;4.93;4.63;;;10.60;68.10;;;;;;5016463;28;20046;-83
2021/10/16 02:42:23;;;;;;;4.85;4.55;;;10.60;68.10;;;;;;4988911;28;20507;-84
2021/10/16 02:44:49;;;;;;;4.97;4.68;;;10.60;68.10;;;;;;4984050;28;20058;-84
2021/10/16 02:47:16;;;;;;;5.03;4.53;;;10.50;68.10;;;;;;4978419;28;20373;-83
2021/10/16 02:49:42;;;;;;;4.22;4.03;;;10.50;68.20;;;;;;4987886;28;20611;-83
2021/10/16 02:52:08;;;;;;;4.55;4.35;;;10.50;68.20;;;;;;5021719;28;20035;-83
2021/10/16 02:54:34;;;;;;;3.83;3.63;;;10.50;68.20;;;;;;4981992;28;20042;-83
2021/10/16 02:57:00;;;;;;;5.05;4.75;;;10.50;68.20;;;;;;4973583;28;20491;-83
2021/10/16 02:59:26;;;;;;;4.38;4.13;;;10.40;68.10;;;;;;4991330;28;20033;-83
2021/10/16 03:01:53;;;;;;;4.97;4.57;;;10.50;68.30;;;;;;4988900;28;20507;-83
2021/10/16 03:04:19;;;;;;;4.45;4.25;;;10.40;68.20;;;;;;4976877;28;20054;-83
2021/10/16 03:06:45;;;;;;;4.82;4.43;;;10.40;68.30;;;;;;4975795;28;20600;-83
2021/10/16 03:09:11;;;;;;;4.75;4.50;;;10.40;68.30;;;;;;5018923;28;20042;-84
2021/10/16 03:11:37;;;;;;;4.57;4.35;;;10.40;68.30;;;;;;4970141;28;20053;-83
2021/10/16 03:14:03;;;;;;;4.32;4.13;;;10.30;68.20;;;;;;5023062;28;20061;-83
2021/10/16 03:16:29;;;;;;;3.80;3.60;;;10.30;68.30;;;;;;4989078;28;20499;-83
2021/10/16 03:18:55;;;;;;;4.97;4.68;;;10.30;68.40;;;;;;4991711;28;20041;-84
2021/10/16 03:21:22;;;;;;;6.65;5.43;;;10.30;68.50;;;;;;4987894;28;20022;-84
2021/10/16 03:23:48;;;;;;;4.88;4.57;;;10.30;68.50;;;;;;4981706;28;20053;-83
2021/10/16 03:26:14;;;;;;;6.00;5.50;;;10.30;68.50;;;;;;4999116;28;20038;-84
2021/10/16 03:28:40;;;;;;;5.00;4.70;;;10.30;68.60;;;;;;5017685;28;20475;-82
2021/10/16 03:31:06;;;;;;;5.32;4.93;;;10.30;68.50;;;;;;4997752;28;20062;-83
2021/10/16 03:33:32;;;;;;;4.63;4.22;;;10.20;68.50;;;;;;4989573;28;20244;-82
2021/10/16 03:35:58;;;;;;;4.90;4.60;;;10.20;68.50;;;;;;4979594;28;20069;-82
2021/10/16 03:38:25;;;;;;;6.13;4.90;;;10.20;68.50;;;;;;4980219;28;20038;-84
2021/10/16 03:40:51;;;;;;;4.88;4.63;;;10.20;68.50;;;;;;4988490;28;20031;-83
2021/10/16 03:43:17;;;;;;;4.28;4.05;;;10.20;68.60;;;;;;4990889;28;20065;-83
2021/10/16 03:45:43;;;;;;;4.57;4.38;;;10.10;68.50;;;;;;4976837;28;20039;-81
2021/10/16 03:48:09;;;;;;;4.50;4.20;;;10.20;68.60;;;;;;4973972;28;20417;-87
2021/10/16 03:50:35;;;;;;;4.80;4.50;;;10.10;68.50;;;;;;4981057;28;20046;-87
2021/10/16 03:53:01;;;;;;;5.50;5.10;;;10.10;68.50;;;;;;4974762;28;20047;-85
2021/10/16 03:55:28;;;;;;;4.18;3.97;;;10.10;68.60;;;;;;5006787;28;20030;-84
2021/10/16 03:57:54;;;;;;;5.38;4.97;;;10.10;68.70;;;;;;4987119;28;20042;-86
2021/10/16 04:00:20;;;;;;;5.22;4.82;;;10.10;68.60;;;;;;4995363;28;20038;-85
2021/10/16 04:02:52;;;;;;;4.60;4.30;;;10.10;68.60;;;;;;4998414;28;20033;-86
2021/10/16 04:05:18;;;;;;;5.13;4.72;;;10.00;68.70;;;;;;4997551;28;20039;-86
2021/10/16 04:07:44;;;;;;;4.15;3.95;;;10.00;68.70;;;;;;5003140;28;20038;-85
2021/10/16 04:10:10;;;;;;;5.25;4.95;;;10.00;68.70;;;;;;4994550;28;20035;-86
2021/10/16 04:12:37;;;;;;;5.13;4.80;;;10.00;68.80;;;;;;5006296;28;20022;-84
2021/10/16 04:15:05;;;;;;;4.35;4.15;;;10.00;68.80;;;;;;5001425;28;20494;-83
2021/10/16 04:17:31;;;;;;;4.88;4.57;;;10.00;68.80;;;;;;5002768;28;20034;-83
2021/10/16 04:19:57;;;;;;;4.60;4.30;;;9.90;68.70;;;;;;5005356;28;20061;-83
2021/10/16 04:22:23;;;;;;;4.10;3.90;;;9.90;68.80;;;;;;4993753;28;20095;-84
2021/10/16 04:24:49;;;;;;;4.93;4.60;;;9.90;68.80;;;;;;5031955;28;20515;-85
2021/10/16 04:27:16;;;;;;;5.18;4.88;;;9.90;68.80;;;;;;4998311;28;20046;-85
2021/10/16 04:29:42;;;;;;;4.88;4.57;;;9.90;68.80;;;;;;4996821;28;20479;-84
2021/10/16 04:32:08;;;;;;;4.53;4.22;;;9.90;68.80;;;;;;4996788;28;20069;-83
2021/10/16 04:34:34;;;;;;;4.20;4.00;;;9.80;68.90;;;;;;4994075;28;20489;-84
2021/10/16 04:37:00;;;;;;;4.20;4.00;;;9.80;68.80;;;;;;4997290;28;20034;-83
2021/10/16 04:39:28;;;;;;;4.97;4.65;;;9.80;68.90;;;;;;4998519;28;20415;-84
2021/10/16 04:41:54;;;;;;;5.07;4.68;;;9.80;68.90;;;;;;4980520;28;20049;-84
2021/10/16 04:44:20;;;;;;;5.80;5.32;;;9.80;68.90;;;;;;4993534;28;20052;-84
2021/10/16 04:46:46;;;;;;;5.00;4.70;;;9.80;68.90;;;;;;4998463;28;20412;-84
2021/10/16 04:49:12;;;;;;;4.40;4.20;;;9.70;68.90;;;;;;4994350;28;20030;-85
2021/10/16 04:51:38;;;;;;;5.22;4.82;;;9.70;68.90;;;;;;4996943;28;20034;-84
2021/10/16 04:54:04;;;;;;;4.72;4.43;;;9.70;69.00;;;;;;4978941;28;20046;-83
2021/10/16 04:56:30;;;;;;;4.50;4.20;;;9.70;69.00;;;;;;4995405;28;20475;-84
2021/10/16 04:58:56;;;;;;;5.70;5.28;;;9.70;68.90;;;;;;4999159;28;20422;-84
2021/10/16 05:01:22;;;;;;;12.70;4.97;;;9.70;69.00;;;;;;5007046;28;20042;-83
2021/10/16 05:03:49;;;;;;;5.03;4.72;;;9.70;69.80;;;;;;4998762;28;20400;-84
2021/10/16 05:06:15;;;;;;;4.57;4.28;;;9.70;69.00;;;;;;4975362;28;20046;-84
2021/10/16 05:08:41;;;;;;;4.63;4.40;;;9.70;69.00;;;;;;4992278;28;20506;-84
2021/10/16 05:11:07;;;;;;;5.35;4.85;;;9.60;69.00;;;;;;4996230;28;20029;-84
2021/10/16 05:13:33;;;;;;;7.43;5.25;;;9.70;69.00;;;;;;4993506;28;20522;-84
2021/10/16 05:15:59;;;;;;;5.75;5.28;;;9.70;69.10;;;;;;4996537;28;20045;-85
2021/10/16 05:18:26;;;;;;;4.20;4.00;;;9.60;69.00;;;;;;5012646;28;20041;-85
2021/10/16 05:20:52;;;;;;;4.40;4.20;;;9.60;69.00;;;;;;4993645;28;20034;-82
2021/10/16 05:23:18;;;;;;;4.35;4.15;;;9.60;69.10;;;;;;4990295;28;21421;-85
2021/10/16 05:25:45;;;;;;;4.97;4.60;;;9.60;69.10;;;;;;4993428;28;20046;-84
2021/10/16 05:28:11;;;;;;;4.22;4.03;;;9.60;69.10;;;;;;4995141;28;20414;-84
2021/10/16 05:30:37;;;;;;;4.40;4.10;;;9.60;69.10;;;;;;5041096;28;20049;-84
2021/10/16 05:33:03;;;;;;;4.18;3.97;;;9.60;69.20;;;;;;4998903;28;20038;-84
2021/10/16 05:35:29;;;;;;;5.18;4.82;;;9.60;69.20;;;;;;5001464;28;20052;-84
2021/10/16 05:37:55;;;;;;;4.38;4.18;;;9.60;69.20;;;;;;5008659;28;20124;-85
2021/10/16 05:40:21;;;;;;;4.05;3.78;;;9.50;69.20;;;;;;4992102;28;20041;-84
2021/10/16 05:42:47;;;;;;;5.55;5.13;;;9.50;69.20;;;;;;4999065;28;20045;-84
2021/10/16 05:45:14;;;;;;;5.97;5.40;;;9.50;69.30;;;;;;4989419;28;20054;-84
2021/10/16 05:47:41;;;;;;;4.55;4.18;;;9.50;69.30;;;;;;4995423;28;20042;-84
2021/10/16 05:50:08;;;;;;;6.80;5.97;;;9.50;69.30;;;;;;4994134;28;20029;-83
2021/10/16 05:52:35;;;;;;;6.75;5.45;;;9.50;69.30;;;;;;4993706;28;20050;-84
2021/10/16 05:55:02;;;;;;;5.07;4.78;;;9.50;69.30;;;;;;4979592;28;20042;-84
2021/10/16 05:57:28;;;;;;;5.45;5.13;;;9.50;69.30;;;;;;5028971;28;20460;-84
2021/10/16 05:59:54;;;;;;;4.82;4.53;;;9.40;69.40;;;;;;4999588;28;20038;-84
2021/10/16 06:02:20;;;;;;;4.65;4.40;;;9.40;69.40;;;;;;4999774;28;20038;-84
2021/10/16 06:04:46;;;;;;;5.10;4.75;;;9.40;69.40;;;;;;5006819;28;20057;-84
2021/10/16 06:07:12;;;;;;;6.35;5.28;;;9.30;69.40;;;;;;4993104;28;20042;-83
2021/10/16 06:09:39;;;;;;;5.40;5.00;;;9.30;69.50;;;;;;4997636;28;20042;-85
2021/10/16 06:12:05;;;;;;;4.53;4.22;;;9.30;69.50;;;;;;4993525;28;20023;-86
2021/10/16 06:14:31;;;;;;;4.80;4.50;;;9.30;69.50;;;;;;4996585;28;20042;-85
2021/10/16 06:16:57;;;;;;;5.50;5.00;;;9.30;69.50;;;;;;4995907;28;20026;-86
2021/10/16 06:19:23;;;;;;;5.18;4.68;;;9.30;69.50;;;;;;4992845;28;20404;-86
2021/10/16 06:21:49;;;;;;;4.28;4.07;;;9.30;69.60;;;;;;5029980;28;20022;-84
2021/10/16 06:24:16;;;;;;;4.35;4.00;;;9.40;69.60;;;;;;4996260;28;20053;-86
2021/10/16 06:26:42;;;;;;;4.55;4.25;;;9.40;70.10;;;;;;4975762;28;20047;-87
2021/10/16 06:29:08;;;;;;;4.63;4.32;;;9.40;69.40;;;;;;5003094;28;20394;-84
2021/10/16 06:31:34;;;;;;;4.28;4.07;;;9.50;69.40;;;;;;4992250;28;20033;-85
2021/10/16 06:34:00;;;;;;;4.70;4.50;;;9.50;69.40;;;;;;5010047;28;20026;-83
2021/10/16 06:36:26;;;;;;;5.53;5.13;;;9.40;69.40;;;;;;5028143;28;20492;-83
2021/10/16 06:38:53;;;;;;;5.05;4.57;;;9.40;69.50;;;;;;4979527;28;20061;-87
2021/10/16 06:41:19;;;;;;;12.02;4.95;;;9.40;69.60;;;;;;4995229;28;20783;-83
2021/10/16 06:43:46;;;;;;;4.93;4.50;;;9.40;69.70;;;;;;5004579;28;20035;-84
2021/10/16 06:46:12;;;;;;;5.65;5.07;;;9.40;69.60;;;;;;4991179;28;20041;-85
2021/10/16 06:48:38;;;;;;;3.95;3.75;;;9.40;69.60;;;;;;5029214;28;20057;-83
2021/10/16 06:51:04;;;;;;;5.35;4.95;;;9.50;69.70;;;;;;4975307;28;20050;-84
2021/10/16 06:53:30;;;;;;;4.53;4.32;;;9.50;69.60;;;;;;5023496;28;20034;-84
2021/10/16 06:55:56;;;;;;;4.68;4.13;;;9.50;69.60;;;;;;4985379;28;20043;-86
2021/10/16 06:58:22;;;;;;;4.40;4.10;;;9.50;69.70;;;;;;4992686;28;20030;-83
2021/10/16 07:00:48;;;;;;;5.25;4.95;;;9.50;69.70;;;;;;4988390;28;20411;-85
2021/10/16 07:03:14;;;;;;;5.07;4.68;;;9.60;69.60;;;;;;5019848;28;20041;-85
2021/10/16 07:05:41;;;;;;;4.13;3.92;;;9.60;69.60;;;;;;4988426;28;20054;-85
2021/10/16 07:08:07;;;;;;;4.10;3.90;;;9.70;69.70;;;;;;5021795;28;20030;-86
2021/10/16 07:10:33;;;;;;;4.60;4.30;;;9.70;69.70;;;;;;5007056;28;20045;-86
2021/10/16 07:13:03;;;;;;;5.65;5.25;;;9.70;69.60;;;;;;4990328;28;20053;-88
2021/10/16 07:15:29;;;;;;;4.72;4.43;;;9.80;69.60;;;;;;4979853;28;20042;-90
2021/10/16 07:17:55;;;;;;;4.70;4.35;;;9.80;69.50;;;;;;4985599;28;20038;-88
2021/10/16 07:20:21;;;;;;;3.90;3.70;;;9.80;69.50;;;;;;4986585;28;20027;-88
2021/10/16 07:22:48;;;;;;;5.07;4.63;;;9.80;69.50;;;;;;5017215;28;20043;-90
2021/10/16 07:25:14;;;;;;;4.22;4.03;;;9.80;69.60;;;;;;4974557;28;20051;-86
2021/10/16 07:27:40;;;;;;;5.57;5.15;;;9.80;69.60;;;;;;4979959;28;20479;-88
2021/10/16 07:30:06;;;;;;;4.82;4.43;;;9.80;69.70;;;;;;5022572;28;20030;-89
2021/10/16 07:32:32;;;;;;;5.47;4.18;;;9.90;69.80;;;;;;4982102;28;20030;-90
2021/10/16 07:34:58;;;;;;;4.55;4.30;;;9.80;69.70;;;;;;4992796;28;20487;-89
2021/10/16 07:37:24;;;;;;;4.53;4.18;;;9.80;69.80;;;;;;4990321;28;20038;-86
2021/10/16 07:39:51;;;;;;;5.53;5.13;;;9.90;69.80;;;;;;4977864;28;20031;-87
2021/10/16 07:42:17;;;;;;;5.45;5.05;;;9.90;69.80;;;;;;4988810;28;20042;-84
2021/10/16 07:44:43;;;;;;;3.95;3.75;;;9.90;69.80;;;;;;5015056;28;20499;-84
2021/10/16 07:47:09;;;;;;;4.65;4.43;;;9.90;69.80;;;;;;5009809;28;20045;-84
2021/10/16 07:49:35;;;;;;;4.40;4.18;;;9.90;69.90;;;;;;5006102;28;20030;-85
2021/10/16 07:52:01;;;;;;;4.88;4.47;;;9.90;70.00;;;;;;4989907;28;20418;-85
2021/10/16 07:54:27;;;;;;;4.25;4.03;;;9.90;70.10;;;;;;4991644;28;20081;-84
2021/10/16 07:56:53;;;;;;;6.65;5.30;;;9.90;70.30;;;;;;4987536;28;20034;-85
2021/10/16 07:59:19;;;;;;;4.85;4.47;;;9.80;70.30;;;;;;5019656;28;20111;-84
2021/10/16 08:01:46;;;;;;;4.40;4.20;;;9.80;70.40;;;;;;4990392;28;20027;-85
2021/10/16 08:04:12;;;;;;;5.28;4.88;;;9.80;70.50;;;;;;5010835;28;20392;-84
2021/10/16 08:06:38;;;;;;;4.95;4.57;;;9.80;70.50;;;;;;4987473;28;20038;-86
2021/10/16 08:09:04;;;;;;;6.07;4.68;;;9.90;70.60;;;;;;4990862;28;20038;-84
2021/10/16 08:11:30;;;;;;;4.65;4.40;;;9.90;70.50;;;;;;4999348;28;20046;-86
2021/10/16 08:13:56;;;;;;;4.88;4.57;;;9.90;70.50;;;;;;4992084;28;20034;-84
2021/10/16 08:16:22;;;;;;;5.22;4.93;;;10.00;70.60;;;;;;4981023;28;20061;-86
2021/10/16 08:18:49;;;;;;;4.82;4.50;;;10.00;70.50;;;;;;4968509;28;20061;-84
2021/10/16 08:21:15;;;;;;;6.10;5.70;;;10.10;70.50;;;;;;4976908;28;20042;-85
2021/10/16 08:23:41;;;;;;;9.93;5.20;;;10.20;70.50;;;;;;4982234;28;20046;-84
2021/10/16 08:26:07;;;;;;;4.78;4.47;;;10.20;70.50;;;;;;4993582;28;20038;-85
2021/10/16 08:28:33;;;;;;;5.18;4.88;;;10.30;70.50;;;;;;5006124;28;20029;-85
2021/10/16 08:31:00;;;;;;;5.43;5.03;;;10.40;70.40;;;;;;5019711;28;20038;-85
2021/10/16 08:33:26;;;;;;;5.40;4.93;;;10.40;70.20;;;;;;5011499;28;20023;-85
2021/10/16 08:35:53;;;;;;;5.75;5.15;;;10.50;70.20;;;;;;4996552;28;20057;-89
2021/10/16 08:38:19;;;;;;;15.35;5.80;;;10.60;70.20;;;;;;4987065;28;20361;-85
2021/10/16 08:40:45;;;;;;;5.00;4.80;;;10.60;70.10;;;;;;4999425;28;20035;-85
2021/10/16 08:43:11;;;;;;;5.43;5.03;;;10.70;70.30;;;;;;5007754;28;20034;-88
2021/10/16 08:45:37;;;;;;;5.30;4.95;;;10.70;70.30;;;;;;5019015;28;20045;-89
2021/10/16 08:48:04;;;;;;;5.95;5.10;;;10.80;70.30;;;;;;4996841;28;20034;-89
2021/10/16 08:50:30;;;;;;;5.03;4.70;;;10.90;70.10;;;;;;4994460;28;20061;-85
2021/10/16 08:52:56;;;;;;;5.90;5.50;;;11.10;70.00;;;;;;4986629;28;20022;-87
2021/10/16 08:55:22;;;;;;;5.47;5.13;;;11.30;69.70;;;;;;4975861;28;20026;-88
2021/10/16 08:57:50;;;;;;;5.75;5.40;;;11.40;69.60;;;;;;5009849;28;20030;-87
2021/10/16 09:00:36;;;;;;;5.72;5.35;;;11.60;69.50;;;;;;4984520;28;20051;-87
2021/10/16 09:03:30;;;;;;;5.72;5.22;;;11.80;69.40;;;;;;4989726;28;20053;-89
2021/10/16 09:06:11;;;;;;;6.13;5.63;;;11.90;69.30;;;;;;4990181;28;20065;-87
2021/10/16 09:08:56;;;;;;;5.65;5.25;;;12.10;69.10;;;;;;5020755;28;20042;-86
2021/10/16 09:11:26;;;;;;;7.95;6.18;;;12.20;69.00;;;;;;4990476;28;20034;-84
2021/10/16 09:13:53;;;;;;;5.45;5.15;;;12.40;69.10;;;;;;4997022;28;20026;-86
2021/10/16 09:16:20;;;;;;;4.63;4.43;;;12.40;69.10;;;;;;4996564;28;20038;-83
2021/10/16 09:18:51;;;;;;;5.32;5.03;;;12.50;69.00;;;;;;4977838;28;20031;-85
2021/10/16 09:21:17;;;;;;;5.00;4.70;;;12.60;69.00;;;;;;4989162;28;20484;-86
2021/10/16 09:23:43;;;;;;;4.93;4.63;;;12.80;69.00;;;;;;5004880;28;20034;-88
2021/10/16 09:26:10;;;;;;;5.75;5.28;;;12.90;68.70;;;;;;5005047;28;20042;-86
2021/10/16 09:28:38;;;;;;;5.15;4.75;;;13.10;68.60;;;;;;5025011;28;20030;-83
2021/10/16 09:31:10;;;;;;;5.32;5.00;;;13.20;68.60;;;;;;4993886;28;20038;-83
2021/10/16 09:33:47;;;;;;;4.60;4.40;;;13.30;68.50;;;;;;4990479;28;20034;-84
2021/10/16 09:36:23;;;;;;;5.90;5.60;;;13.40;68.40;;;;;;5004441;28;20487;-87
2021/10/16 09:38:49;;;;;;;5.43;5.03;;;13.50;68.50;;;;;;4983103;28;20043;-85
2021/10/16 09:41:28;;;;;;;5.55;5.25;;;13.60;68.60;;;;;;5014401;28;20041;-87
2021/10/16 09:43:55;;;;;;;5.65;5.35;;;13.70;68.60;;;;;;4982636;28;20023;-85
2021/10/16 09:46:21;;;;;;;5.75;5.43;;;13.80;68.60;;;;;;4980278;28;20049;-84
2021/10/16 09:48:48;;;;;;;5.75;5.45;;;13.90;68.50;;;;;;4989515;28;20034;-87
2021/10/16 09:51:15;;;;;;;5.82;5.53;;;14.00;68.50;;;;;;4990289;28;20045;-88
2021/10/16 09:53:49;;;;;;;5.57;5.28;;;14.00;68.40;;;;;;4994090;28;20039;-86
2021/10/16 09:56:15;;;;;;;5.15;4.90;;;14.20;68.40;;;;;;4990563;28;20042;-88
2021/10/16 09:58:41;;;;;;;5.97;5.47;;;14.30;68.30;;;;;;5008215;28;20034;-85
2021/10/16 10:01:09;;;;;;;5.65;5.35;;;14.30;68.30;;;;;;5000891;28;20038;-86
2021/10/16 10:03:44;;;;;;;4.80;4.50;;;14.30;68.20;;;;;;4996573;28;20034;-84
2021/10/16 10:06:16;;;;;;;4.70;4.50;;;14.40;68.20;;;;;;4978222;28;20049;-86
2021/10/16 10:08:42;;;;;;;5.50;5.10;;;14.60;68.90;;;;;;4990929;28;20062;-84
2021/10/16 10:11:08;;;;;;;5.70;5.40;;;14.70;67.90;;;;;;4980048;28;20033;-86
2021/10/16 10:13:35;;;;;;;5.10;4.90;;;14.80;67.80;;;;;;4992362;28;20401;-83
2021/10/16 10:16:01;;;;;;;5.32;5.03;;;14.90;67.70;;;;;;4994665;28;20475;-86
2021/10/16 10:21:11;;;;;;;5.63;5.15;;;15.10;67.50;;;;;;4999140;28;20030;-87
2021/10/16 10:23:54;;;;;;;5.45;5.10;;;15.20;67.20;;;;;;4999182;28;20034;-89
2021/10/16 10:26:27;;;;;;;4.90;4.70;;;15.30;67.10;;;;;;4991114;28;20041;-88
2021/10/16 10:28:54;;;;;;;4.88;4.68;;;15.30;66.90;;;;;;5006296;28;20038;-89
2021/10/16 10:31:45;;;;;;;5.25;4.85;;;15.50;66.90;;;;;;4990148;28;20034;-87
2021/10/16 10:34:22;;;;;;;4.70;4.50;;;15.60;66.80;;;;;;5005605;28;20474;-90
2021/10/16 10:36:54;;;;;;;5.20;4.90;;;15.60;66.60;;;;;;4977802;28;20062;-87
2021/10/16 10:39:33;;;;;;;5.53;4.30;;;15.70;66.50;;;;;;4978197;28;20049;-85
2021/10/16 10:42:04;;;;;;;5.40;5.10;;;15.80;66.40;;;;;;4995746;28;20042;-86
2021/10/16 10:44:43;;;;;;;;;;;15.90;66.20;;;;;;4993365;28;20034;-86
2021/10/16 10:47:24;;;;;;;8.43;5.70;;;15.90;66.10;;;;;;5036706;28;19921;-87
2021/10/16 10:49:54;;;;;;;;;;;16.00;65.90;;;;;;4994894;28;20029;-86
2021/10/16 10:52:26;;;;;;;5.15;4.90;;;16.10;65.80;;;;;;5023059;28;19968;-84
2021/10/16 10:55:12;;;;;;;5.20;4.90;;;16.10;65.60;;;;;;5011997;28;20034;-88
2021/10/16 10:57:58;;;;;;;5.10;4.90;;;16.20;65.70;;;;;;4995304;28;20026;-86
2021/10/16 11:00:34;;;;;;;5.32;5.03;;;16.20;65.60;;;;;;4996966;28;20030;-89
2021/10/16 11:03:01;;;;;;;4.72;4.53;;;16.30;65.60;;;;;;4997107;28;20034;-89
2021/10/16 11:05:31;;;;;;;5.28;4.97;;;16.30;65.50;;;;;;4994862;28;20467;-84
2021/10/16 11:08:08;;;;;;;4.70;4.50;;;16.40;65.50;;;;;;4994923;28;20033;-85
2021/10/16 11:10:35;;;;;;;5.13;4.82;;;16.40;65.30;;;;;;4984449;28;20289;-86
2021/10/16 11:13:20;;;;;;;5.38;5.07;;;16.50;65.30;;;;;;4993867;28;20026;-85
2021/10/16 11:15:56;;;;;;;11.25;5.22;;;16.60;65.20;;;;;;4994199;28;20128;-84
2021/10/16 11:18:22;;;;;;;5.40;5.10;;;16.70;65.00;;;;;;4978000;28;20029;-84
2021/10/16 11:20:48;;;;;;;7.15;5.13;;;16.70;64.80;;;;;;4994138;28;20037;-82
2021/10/16 11:23:24;;;;;;;4.78;4.57;;;16.80;64.90;;;;;;5001350;28;20022;-84
2021/10/16 11:26:04;;;;;;;4.93;4.72;;;16.80;64.60;;;;;;4991263;28;20525;-84
2021/10/16 11:28:32;;;;;;;5.40;5.10;;;16.80;64.60;;;;;;4974983;28;20383;-83
2021/10/16 11:30:58;;;;;;;5.40;5.10;;;16.90;64.60;;;;;;4993646;28;20057;-86
2021/10/16 11:33:26;;;;;;;4.95;4.75;;;16.90;64.40;;;;;;4993156;28;20057;-85
2021/10/16 11:35:57;;;;;;;4.85;4.65;;;17.00;64.30;;;;;;4994554;28;20044;-88
2021/10/16 11:38:37;;;;;;;5.85;5.55;;;17.10;64.20;;;;;;5001445;28;20033;-87
2021/10/16 11:41:05;;;;;;;5.70;5.40;;;17.10;64.10;;;;;;4992032;28;20049;-88
2021/10/16 11:43:32;;;;;;;5.38;5.03;;;17.20;64.00;;;;;;4990782;28;20506;-87
2021/10/16 11:45:58;;;;;;;5.30;5.10;;;17.20;63.80;;;;;;4995130;28;20049;-87
2021/10/16 11:48:25;;;;;;;5.97;5.68;;;17.30;63.80;;;;;;4978847;28;20034;-87
2021/10/16 11:50:55;;;;;;;5.60;5.25;;;17.30;63.80;;;;;;4994445;28;20037;-87
2021/10/16 11:53:23;;;;;;;6.20;5.88;;;17.40;63.70;;;;;;5002951;28;20361;-85
2021/10/16 11:55:54;;;;;;;5.60;5.30;;;17.50;63.60;;;;;;4991227;28;20030;-85
2021/10/16 11:58:24;;;;;;;5.32;5.13;;;17.50;63.30;;;;;;4989731;28;20019;-85
2021/10/16 12:00:54;;;;;;;5.60;5.30;;;17.60;63.30;;;;;;5027058;28;20042;-85
2021/10/16 12:03:28;;;;;;;5.78;5.47;;;17.60;63.20;;;;;;4994089;28;20023;-85
2021/10/16 12:05:55;;;;;;;5.78;5.47;;;17.70;63.10;;;;;;4995373;28;20050;-85
2021/10/16 12:08:25;;;;;;;6.40;6.10;;;17.80;63.00;;;;;;4998306;28;20140;-85
2021/10/16 12:10:55;;;;;;;5.82;5.43;;;17.80;62.70;;;;;;5005606;28;20494;-85
2021/10/16 12:13:39;;;;;;;6.40;6.10;;;17.90;62.70;;;;;;4973212;28;20606;-85
2021/10/16 12:16:11;;;;;;;6.55;6.05;;;17.90;62.50;;;;;;5004171;28;20042;-85
2021/10/16 12:18:48;;;;;;;6.63;6.32;;;18.00;62.40;;;;;;4994260;28;20030;-85
2021/10/16 12:21:29;;;;;;;6.72;6.32;;;18.00;62.40;;;;;;4991748;28;20464;-85
2021/10/16 12:23:57;;;;;;;6.97;6.57;;;18.00;62.40;;;;;;4995434;28;20026;-86
2021/10/16 12:26:32;;;;;;;6.43;6.13;;;18.10;62.20;;;;;;4998214;28;20034;-85
2021/10/16 12:28:59;;;;;;;6.20;5.90;;;18.10;62.10;;;;;;4994668;28;20034;-85
2021/10/16 12:31:25;;;;;;;6.28;5.97;;;18.10;62.10;;;;;;5006732;28;20515;-85
2021/10/16 12:34:02;;;;;;;6.40;6.10;;;18.20;62.00;;;;;;4998899;28;20038;-86
2021/10/16 12:36:36;;;;;;;8.50;8.10;;;18.20;61.80;;;;;;4997375;28;20058;-85
2021/10/16 12:39:04;;;;;;;6.55;6.25;;;18.30;61.70;;;;;;4999984;28;20033;-86
2021/10/16 12:41:41;;;;;;;6.60;6.07;;;18.30;61.60;;;;;;5002238;28;20442;-86
2021/10/16 12:44:18;;;;;;;6.43;6.13;;;18.30;61.60;;;;;;5005623;28;20383;-86
2021/10/16 12:47:04;;;;;;;7.40;6.32;;;18.40;61.50;;;;;;4992533;28;20409;-86
2021/10/16 12:49:48;;;;;;;6.53;6.22;;;18.40;61.50;;;;;;4978049;28;20399;-84
2021/10/16 12:52:26;;;;;;;12.20;6.40;;;18.40;61.30;;;;;;4994265;28;20033;-85
2021/10/16 12:54:53;;;;;;;7.55;7.22;;;18.50;61.30;;;;;;5010925;28;20033;-85
2021/10/16 12:57:19;;;;;;;7.10;6.80;;;18.50;61.20;;;;;;4996425;28;20031;-84